createdAt,value
2023-02-25T00:00:10.498Z,7.60
2023-02-25T00:02:38.072Z,7.60
2023-02-25T00:05:07.103Z,7.70
2023-02-25T00:07:33.781Z,7.60
2023-02-25T00:10:01.823Z,7.60
2023-02-25T00:12:29.264Z,7.60
2023-02-25T00:14:56.203Z,7.60
2023-02-25T00:17:23.274Z,7.50
2023-02-25T00:19:50.222Z,7.50
2023-02-25T00:22:17.123Z,7.60
2023-02-25T00:24:43.804Z,7.60
2023-02-25T00:27:10.448Z,7.60
2023-02-25T00:29:37.119Z,7.70
2023-02-25T00:32:03.943Z,7.70
2023-02-25T00:34:31.484Z,7.70
2023-02-25T00:36:58.178Z,7.60
2023-02-25T00:39:24.852Z,7.70
2023-02-25T00:41:51.494Z,7.70
2023-02-25T00:44:18.114Z,7.60
2023-02-25T00:46:44.860Z,7.50
2023-02-25T00:49:16.678Z,7.50
2023-02-25T00:51:47.852Z,7.50
2023-02-25T00:54:14.476Z,7.40
2023-02-25T00:56:41.096Z,7.40
2023-02-25T00:59:07.695Z,7.30
2023-02-25T01:01:34.452Z,7.30
2023-02-25T01:04:01.470Z,7.20
2023-02-25T01:06:29.358Z,7.20
2023-02-25T01:08:57.734Z,7.10
2023-02-25T01:11:29.095Z,7.10
2023-02-25T01:13:57.547Z,7.00
2023-02-25T01:16:26.409Z,7.00
2023-02-25T01:18:58.542Z,6.90
2023-02-25T01:21:28.022Z,6.80
2023-02-25T01:23:58.706Z,6.80
2023-02-25T01:26:30.490Z,6.80
2023-02-25T01:28:57.235Z,6.80
2023-02-25T01:31:29.562Z,6.70
2023-02-25T01:34:00.876Z,6.70
2023-02-25T01:36:29.029Z,6.60
2023-02-25T01:38:56.276Z,6.60
2023-02-25T01:41:24.664Z,6.50
2023-02-25T01:44:11.774Z,6.50
2023-02-25T01:46:40.167Z,6.50
2023-02-25T01:49:39.116Z,6.50
2023-02-25T01:52:19.185Z,6.40
2023-02-25T01:54:50.461Z,6.40
2023-02-25T01:57:18.624Z,6.30
2023-02-25T01:59:46.823Z,6.30
2023-02-25T02:02:16.988Z,6.20
2023-02-25T02:04:45.144Z,6.20
2023-02-25T02:07:11.953Z,6.20
2023-02-25T02:09:40.384Z,6.10
2023-02-25T02:12:07.745Z,6.10
2023-02-25T02:14:42.023Z,6.00
2023-02-25T02:17:08.546Z,6.00
2023-02-25T02:19:49.674Z,5.90
2023-02-25T02:22:41.102Z,5.90
2023-02-25T02:25:51.560Z,5.90
2023-02-25T02:28:39.513Z,5.90
2023-02-25T02:31:20.770Z,5.90
2023-02-25T02:34:02.233Z,5.80
2023-02-25T02:37:06.404Z,5.90
2023-02-25T02:39:57.563Z,5.90
2023-02-25T02:42:56.313Z,5.90
2023-02-25T02:45:34.456Z,6.00
2023-02-25T02:48:05.919Z,6.00
2023-02-25T02:50:38.031Z,6.00
2023-02-25T02:53:34.751Z,6.00
2023-02-25T02:56:05.237Z,6.00
2023-02-25T02:59:06.816Z,6.00
2023-02-25T03:01:46.158Z,6.00
2023-02-25T03:04:20.197Z,6.00
2023-02-25T03:06:50.550Z,5.90
2023-02-25T03:09:30.724Z,5.90
2023-02-25T03:11:57.500Z,5.80
2023-02-25T03:14:24.247Z,5.80
2023-02-25T03:17:15.308Z,5.90
2023-02-25T03:19:51.064Z,5.90
2023-02-25T03:22:27.790Z,5.80
2023-02-25T03:24:59.133Z,5.80
2023-02-25T03:27:36.367Z,5.70
2023-02-25T03:30:40.343Z,5.70
2023-02-25T03:33:14.573Z,5.70
2023-02-25T03:35:43.247Z,5.70
2023-02-25T03:38:17.380Z,5.70
2023-02-25T03:40:45.571Z,5.60
2023-02-25T03:43:18.376Z,5.60
2023-02-25T03:45:45.363Z,5.60
2023-02-25T03:48:15.186Z,5.60
2023-02-25T03:50:46.812Z,5.60
2023-02-25T03:53:13.465Z,5.60
2023-02-25T03:55:40.308Z,5.70
2023-02-25T03:58:09.949Z,5.70
2023-02-25T04:00:37.577Z,5.70
2023-02-25T04:03:04.707Z,5.80
2023-02-25T04:05:31.576Z,5.80
2023-02-25T04:07:59.104Z,5.80
2023-02-25T04:10:26.261Z,5.80
2023-02-25T04:12:52.908Z,5.80
2023-02-25T04:15:20.318Z,5.90
2023-02-25T04:17:47.143Z,5.90
2023-02-25T04:20:19.765Z,6.00
2023-02-25T04:22:46.359Z,6.00
2023-02-25T04:25:13.079Z,6.00
2023-02-25T04:27:40.056Z,6.10
2023-02-25T04:30:07.303Z,6.00
2023-02-25T04:32:34.041Z,6.10
2023-02-25T04:35:03.238Z,6.20
2023-02-25T04:37:30.715Z,6.20
2023-02-25T04:39:57.966Z,6.20
2023-02-25T04:42:24.787Z,6.20
2023-02-25T04:44:51.608Z,6.20
2023-02-25T04:47:19.201Z,6.20
2023-02-25T04:49:46.007Z,6.30
2023-02-25T04:52:14.012Z,6.30
2023-02-25T04:54:40.976Z,6.30
2023-02-25T04:57:08.303Z,6.30
2023-02-25T04:59:34.953Z,6.30
2023-02-25T05:02:01.776Z,6.30
2023-02-25T05:04:28.780Z,6.30
2023-02-25T05:06:55.444Z,6.40
2023-02-25T05:09:22.073Z,6.40
2023-02-25T05:11:48.765Z,6.40
2023-02-25T05:14:15.675Z,6.40
2023-02-25T05:16:42.369Z,6.50
2023-02-25T05:19:09.131Z,6.50
2023-02-25T05:21:35.777Z,6.40
2023-02-25T05:24:02.426Z,6.50
2023-02-25T05:26:29.081Z,6.40
2023-02-25T05:28:57.660Z,6.50
2023-02-25T05:31:25.967Z,6.40
2023-02-25T05:33:53.575Z,6.40
2023-02-25T05:36:20.874Z,6.40
2023-02-25T05:38:47.681Z,6.50
2023-02-25T05:41:15.482Z,6.40
2023-02-25T05:43:42.241Z,6.40
2023-02-25T05:46:11.864Z,6.50
2023-02-25T05:48:40.763Z,6.40
2023-02-25T05:51:16.145Z,6.40
2023-02-25T05:53:44.770Z,6.40
2023-02-25T05:58:39.453Z,6.40
2023-02-25T06:01:22.757Z,6.40
2023-02-25T06:03:51.652Z,6.50
2023-02-25T06:06:23.232Z,6.40
2023-02-25T06:08:50.815Z,6.40
2023-02-25T06:11:20.538Z,6.40
2023-02-25T06:13:51.439Z,6.40
2023-02-25T06:16:18.764Z,6.50
2023-02-25T06:18:47.027Z,6.50
2023-02-25T06:21:15.017Z,6.40
2023-02-25T06:23:43.302Z,6.40
2023-02-25T06:26:13.490Z,6.50
2023-02-25T06:28:40.384Z,6.40
2023-02-25T06:31:09.565Z,6.50
2023-02-25T06:33:37.143Z,6.50
2023-02-25T06:36:05.066Z,6.50
2023-02-25T06:38:32.968Z,6.50
2023-02-25T06:40:59.974Z,6.50
2023-02-25T06:43:26.844Z,6.50
2023-02-25T06:45:53.458Z,6.50
2023-02-25T06:48:20.198Z,6.50
2023-02-25T06:50:47.041Z,6.60
2023-02-25T06:53:13.674Z,6.60
2023-02-25T06:55:40.545Z,6.70
2023-02-25T06:58:07.449Z,6.70
2023-02-25T07:00:35.212Z,6.80
2023-02-25T07:03:03.150Z,6.90
2023-02-25T07:05:30.249Z,7.30
2023-02-25T07:07:56.911Z,7.30
2023-02-25T07:10:23.589Z,7.30
2023-02-25T07:12:51.379Z,7.30
2023-02-25T07:15:18.065Z,7.30
2023-02-25T07:17:44.676Z,7.30
2023-02-25T07:20:11.919Z,7.30
2023-02-25T07:22:38.563Z,7.40
2023-02-25T07:25:05.852Z,7.40
2023-02-25T07:27:32.816Z,7.40
2023-02-25T07:30:01.392Z,7.40
2023-02-25T07:32:28.127Z,7.40
2023-02-25T07:34:54.847Z,7.50
2023-02-25T07:37:21.435Z,7.50
2023-02-25T07:39:48.032Z,7.60
2023-02-25T07:42:14.747Z,7.60
2023-02-25T07:44:41.375Z,7.60
2023-02-25T07:47:08.144Z,7.60
2023-02-25T07:49:34.867Z,7.60
2023-02-25T07:52:01.493Z,7.60
2023-02-25T07:54:28.259Z,7.70
2023-02-25T07:56:54.861Z,7.70
2023-02-25T07:59:22.325Z,7.70
2023-02-25T08:01:49.051Z,7.80
2023-02-25T08:04:15.775Z,7.80
2023-02-25T08:06:42.519Z,7.80
2023-02-25T08:09:13.335Z,7.80
2023-02-25T08:11:40.746Z,7.90
2023-02-25T08:14:07.380Z,8.00
2023-02-25T08:16:34.282Z,8.10
2023-02-25T08:19:01.176Z,8.10
2023-02-25T08:21:27.824Z,8.10
2023-02-25T08:23:54.828Z,8.20
2023-02-25T08:26:23.062Z,8.40
2023-02-25T08:28:51.035Z,8.50
2023-02-25T08:31:18.698Z,8.50
2023-02-25T08:33:52.541Z,8.60
2023-02-25T08:36:31.213Z,8.80
2023-02-25T08:38:59.551Z,9.00
2023-02-25T08:41:27.910Z,9.20
2023-02-25T08:43:55.954Z,9.30
2023-02-25T08:46:25.217Z,9.40
2023-02-25T08:48:53.619Z,9.40
2023-02-25T08:51:23.006Z,9.40
2023-02-25T08:53:50.598Z,9.40
2023-02-25T08:56:17.513Z,9.50
2023-02-25T08:58:44.464Z,9.40
2023-02-25T09:01:13.894Z,9.30
2023-02-25T09:03:51.022Z,9.30
2023-02-25T09:06:23.321Z,9.30
2023-02-25T09:08:50.928Z,9.40
2023-02-25T09:11:18.966Z,9.60
2023-02-25T09:13:45.607Z,9.80
2023-02-25T09:16:15.706Z,9.90
2023-02-25T09:18:42.664Z,9.80
2023-02-25T09:21:10.743Z,9.80
2023-02-25T09:23:37.663Z,9.80
2023-02-25T09:26:05.505Z,9.70
2023-02-25T09:28:32.105Z,9.80
2023-02-25T09:30:58.801Z,9.90
2023-02-25T09:33:26.394Z,10.10
2023-02-25T09:35:53.028Z,10.20
2023-02-25T09:38:20.456Z,10.30
2023-02-25T09:40:49.103Z,10.40
2023-02-25T09:43:21.963Z,10.50
2023-02-25T09:45:53.921Z,10.60
2023-02-25T09:48:31.287Z,10.70
2023-02-25T09:51:07.341Z,10.80
2023-02-25T09:53:38.481Z,10.80
2023-02-25T09:56:06.642Z,10.80
2023-02-25T09:58:49.631Z,10.90
2023-02-25T10:01:36.303Z,11.00
2023-02-25T10:04:17.433Z,11.00
2023-02-25T10:06:48.811Z,11.20
2023-02-25T10:09:50.093Z,11.20
2023-02-25T10:12:51.060Z,11.50
2023-02-25T10:15:30.194Z,11.70
2023-02-25T10:18:11.783Z,11.80
2023-02-25T10:20:53.107Z,11.90
2023-02-25T10:23:41.818Z,12.00
2023-02-25T10:26:20.458Z,12.00
2023-02-25T10:28:52.925Z,12.00
2023-02-25T10:31:21.697Z,12.10
2023-02-25T10:33:51.273Z,12.10
2023-02-25T10:36:43.445Z,12.00
2023-02-25T10:39:11.453Z,11.90
2023-02-25T10:41:38.229Z,11.60
2023-02-25T10:44:04.838Z,11.30
2023-02-25T10:46:36.748Z,11.20
2023-02-25T10:49:16.564Z,11.10
2023-02-25T10:52:05.589Z,11.00
2023-02-25T10:54:34.976Z,10.90
2023-02-25T10:57:08.577Z,10.80
2023-02-25T10:59:38.401Z,10.70
2023-02-25T11:02:27.880Z,10.70
2023-02-25T11:04:55.196Z,10.60
2023-02-25T11:07:41.300Z,10.50
2023-02-25T11:10:19.452Z,10.50
2023-02-25T11:12:49.334Z,10.40
2023-02-25T11:15:43.665Z,10.50
2023-02-25T11:18:31.260Z,10.40
2023-02-25T11:21:01.533Z,10.30
2023-02-25T11:23:38.349Z,10.40
2023-02-25T11:26:06.726Z,10.30
2023-02-25T11:28:44.071Z,10.30
2023-02-25T11:31:17.048Z,10.30
2023-02-25T11:33:50.486Z,10.40
2023-02-25T11:36:23.494Z,10.60
2023-02-25T11:39:03.433Z,10.80
2023-02-25T11:41:32.159Z,11.10
2023-02-25T11:44:10.696Z,11.20
2023-02-25T11:46:38.617Z,11.50
2023-02-25T11:49:20.600Z,11.80
2023-02-25T11:52:07.391Z,12.10
2023-02-25T11:54:45.443Z,12.30
2023-02-25T12:00:00.373Z,12.30
2023-02-25T12:02:41.241Z,12.40
2023-02-25T12:05:07.868Z,12.30
2023-02-25T12:07:40.305Z,12.20
2023-02-25T12:10:46.544Z,11.90
2023-02-25T12:13:19.424Z,11.20
2023-02-25T12:16:18.281Z,10.40
2023-02-25T12:18:55.551Z,9.90
2023-02-25T12:21:52.768Z,9.70
2023-02-25T12:24:41.264Z,9.50
2023-02-25T12:27:41.914Z,9.40
2023-02-25T12:30:27.635Z,9.40
2023-02-25T12:33:26.411Z,9.50
2023-02-25T12:36:11.307Z,9.60
2023-02-25T12:38:45.375Z,9.80
2023-02-25T12:41:48.575Z,10.10
2023-02-25T12:45:01.016Z,10.50
2023-02-25T12:47:45.567Z,10.90
2023-02-25T12:50:53.469Z,11.00
2023-02-25T12:53:46.921Z,11.00
2023-02-25T12:56:40.610Z,11.00
2023-02-25T12:59:28.675Z,10.90
2023-02-25T13:02:33.903Z,10.90
2023-02-25T13:05:19.172Z,10.70
2023-02-25T13:08:20.593Z,10.40
2023-02-25T13:11:22.083Z,10.00
2023-02-25T13:14:04.039Z,9.70
2023-02-25T13:16:48.825Z,9.50
2023-02-25T13:19:49.530Z,9.30
2023-02-25T13:22:33.954Z,9.00
2023-02-25T13:25:42.141Z,8.80
2023-02-25T13:28:22.114Z,8.60
2023-02-25T13:31:06.238Z,8.30
2023-02-25T13:33:46.106Z,8.10
2023-02-25T13:36:42.872Z,8.00
2023-02-25T13:39:24.586Z,8.10
2023-02-25T13:42:10.024Z,8.10
2023-02-25T13:45:20.039Z,8.10
2023-02-25T13:48:24.860Z,8.00
2023-02-25T13:51:24.705Z,7.80
2023-02-25T13:54:00.166Z,7.60
2023-02-25T13:57:00.077Z,7.30
2023-02-25T13:59:48.785Z,7.10
2023-02-25T14:02:52.465Z,7.00
2023-02-25T14:05:27.573Z,6.90
2023-02-25T14:08:32.617Z,6.70
2023-02-25T14:11:37.646Z,6.80
2023-02-25T14:14:43.089Z,6.90
2023-02-25T14:17:34.473Z,6.90
2023-02-25T14:20:21.368Z,6.90
2023-02-25T14:23:06.852Z,7.00
2023-02-25T14:25:55.430Z,7.00
2023-02-25T14:28:49.488Z,7.00
2023-02-25T14:31:34.467Z,7.00
2023-02-25T14:34:37.552Z,7.10
2023-02-25T14:37:31.669Z,7.30
2023-02-25T14:40:22.103Z,7.50
2023-02-25T14:43:11.095Z,7.60
2023-02-25T14:45:40.113Z,7.80
2023-02-25T14:48:23.663Z,7.70
2023-02-25T14:51:13.083Z,7.80
2023-02-25T14:53:45.960Z,7.90
2023-02-25T14:56:27.345Z,7.90
2023-02-25T14:59:17.039Z,8.00
2023-02-25T15:02:25.273Z,8.00
2023-02-25T15:05:08.287Z,8.10
2023-02-25T15:08:02.494Z,8.10
2023-02-25T15:10:48.701Z,8.20
2023-02-25T15:13:18.072Z,8.30
2023-02-25T15:16:17.699Z,8.40
2023-02-25T15:19:39.611Z,8.50
2023-02-25T15:22:19.413Z,8.70
2023-02-25T15:24:46.405Z,8.80
2023-02-25T15:27:32.125Z,8.70
2023-02-25T15:30:04.386Z,8.50
2023-02-25T15:33:04.737Z,8.00
2023-02-25T15:35:37.217Z,7.60
2023-02-25T15:38:13.545Z,7.20
2023-02-25T15:40:48.849Z,6.90
2023-02-25T15:43:16.200Z,6.50
2023-02-25T15:46:13.392Z,6.40
2023-02-25T15:48:42.055Z,6.20
2023-02-25T15:51:11.675Z,6.20
2023-02-25T15:53:42.272Z,6.20
2023-02-25T15:56:11.663Z,6.10
2023-02-25T15:59:00.592Z,6.10
2023-02-25T16:01:42.480Z,6.10
2023-02-25T16:04:47.285Z,6.10
2023-02-25T16:07:17.287Z,6.10
2023-02-25T16:09:50.301Z,6.10
2023-02-25T16:12:17.576Z,6.00
2023-02-25T16:14:44.575Z,6.00
2023-02-25T16:17:28.870Z,6.00
2023-02-25T16:20:07.988Z,6.00
2023-02-25T16:22:35.239Z,5.90
2023-02-25T16:25:03.335Z,5.90
2023-02-25T16:28:12.750Z,5.90
2023-02-25T16:30:47.498Z,5.90
2023-02-25T16:33:25.081Z,5.80
2023-02-25T16:36:06.739Z,5.90
2023-02-25T16:38:39.597Z,5.90
2023-02-25T16:41:06.467Z,5.90
2023-02-25T16:43:37.645Z,5.90
2023-02-25T16:46:13.600Z,5.90
2023-02-25T16:48:40.171Z,5.90
2023-02-25T16:51:20.013Z,5.90
2023-02-25T16:53:49.665Z,5.90
2023-02-25T16:56:28.815Z,5.80
2023-02-25T16:59:00.109Z,5.80
2023-02-25T17:01:30.029Z,5.80
2023-02-25T17:04:24.880Z,5.80
2023-02-25T17:07:10.295Z,5.80
2023-02-25T17:09:43.354Z,5.70
2023-02-25T17:12:16.255Z,5.60
2023-02-25T17:14:45.732Z,5.60
2023-02-25T17:17:20.940Z,5.60
2023-02-25T17:19:48.116Z,5.60
2023-02-25T17:22:19.981Z,5.60
2023-02-25T17:24:46.954Z,5.60
2023-02-25T17:27:14.830Z,5.50
2023-02-25T17:29:41.510Z,5.50
2023-02-25T17:32:21.973Z,5.50
2023-02-25T17:34:51.032Z,5.50
2023-02-25T17:37:19.274Z,5.50
2023-02-25T17:39:46.504Z,5.50
2023-02-25T17:42:34.521Z,5.40
2023-02-25T17:45:02.027Z,5.40
2023-02-25T17:47:31.856Z,5.40
2023-02-25T17:50:11.340Z,5.30
2023-02-25T17:52:39.460Z,5.30
2023-02-25T17:55:21.250Z,5.30
2023-02-25T17:57:50.025Z,5.20
2023-02-25T18:00:26.960Z,5.20
2023-02-25T18:03:19.276Z,5.10
2023-02-25T18:06:24.438Z,5.00
2023-02-25T18:08:55.579Z,4.90
2023-02-25T18:11:28.740Z,4.90
2023-02-25T18:13:55.842Z,4.80
2023-02-25T18:16:40.098Z,4.70
2023-02-25T18:19:23.662Z,4.70
2023-02-25T18:21:52.044Z,4.60
2023-02-25T18:24:26.878Z,4.50
2023-02-25T18:27:06.964Z,4.50
2023-02-25T18:29:34.422Z,4.40
2023-02-25T18:32:01.181Z,4.40
2023-02-25T18:34:27.910Z,4.40
2023-02-25T18:36:54.586Z,4.40
2023-02-25T18:39:23.582Z,4.50
2023-02-25T18:41:50.581Z,4.50
2023-02-25T18:44:17.276Z,4.50
2023-02-25T18:46:43.890Z,4.50
2023-02-25T18:49:10.485Z,4.40
2023-02-25T18:51:38.009Z,4.40
2023-02-25T18:54:05.345Z,4.40
2023-02-25T18:56:32.534Z,4.40
2023-02-25T18:58:59.279Z,4.40
2023-02-25T19:01:32.486Z,4.40
2023-02-25T19:04:00.166Z,4.50
2023-02-25T19:06:28.551Z,4.50
2023-02-25T19:08:55.209Z,4.50
2023-02-25T19:11:28.116Z,4.50
2023-02-25T19:13:54.751Z,4.60
2023-02-25T19:16:23.272Z,4.60
2023-02-25T19:18:50.253Z,4.50
2023-02-25T19:21:20.217Z,4.60
2023-02-25T19:23:51.216Z,4.60
2023-02-25T19:26:18.100Z,4.60
2023-02-25T19:28:44.748Z,4.60
2023-02-25T19:31:12.513Z,4.60
2023-02-25T19:33:39.313Z,4.60
2023-02-25T19:36:06.882Z,4.60
2023-02-25T19:38:33.682Z,4.60
2023-02-25T19:41:02.703Z,4.60
2023-02-25T19:43:31.531Z,4.60
2023-02-25T19:45:58.252Z,4.60
2023-02-25T19:48:25.103Z,4.70
2023-02-25T19:50:51.695Z,4.70
2023-02-25T19:53:18.982Z,4.70
2023-02-25T19:55:45.628Z,4.70
2023-02-25T19:58:12.284Z,4.70
2023-02-25T20:00:39.871Z,4.50
2023-02-25T20:03:06.582Z,4.30
2023-02-25T20:05:34.861Z,4.10
2023-02-25T20:08:02.586Z,4.00
2023-02-25T20:10:29.215Z,4.00
2023-02-25T20:12:55.871Z,3.90
2023-02-25T20:15:22.546Z,3.90
2023-02-25T20:17:54.656Z,3.80
2023-02-25T20:20:22.709Z,3.80
2023-02-25T20:22:49.539Z,3.80
2023-02-25T20:25:16.295Z,3.80
2023-02-25T20:27:43.538Z,3.80
2023-02-25T20:30:15.769Z,3.80
2023-02-25T20:32:44.254Z,3.70
2023-02-25T20:35:17.507Z,3.70
2023-02-25T20:37:58.918Z,3.80
2023-02-25T20:40:26.172Z,3.70
2023-02-25T20:42:52.954Z,3.70
2023-02-25T20:45:19.948Z,3.80
2023-02-25T20:47:46.759Z,3.70
2023-02-25T20:50:15.801Z,3.70
2023-02-25T20:52:42.640Z,3.80
2023-02-25T20:55:10.444Z,3.80
2023-02-25T20:57:37.129Z,3.80
2023-02-25T21:00:06.148Z,3.80
2023-02-25T21:02:32.822Z,3.80
2023-02-25T21:04:59.432Z,3.80
2023-02-25T21:07:26.043Z,3.80
2023-02-25T21:09:52.632Z,3.80
2023-02-25T21:12:19.259Z,3.80
2023-02-25T21:14:45.856Z,3.80
2023-02-25T21:17:13.603Z,3.80
2023-02-25T21:19:40.592Z,3.80
2023-02-25T21:22:08.145Z,3.80
2023-02-25T21:24:35.051Z,3.80
2023-02-25T21:27:02.285Z,3.80
2023-02-25T21:29:29.150Z,3.80
2023-02-25T21:31:55.953Z,3.80
2023-02-25T21:34:22.841Z,3.80
2023-02-25T21:36:49.795Z,3.80
2023-02-25T21:39:16.463Z,3.80
2023-02-25T21:41:44.777Z,3.80
2023-02-25T21:44:12.322Z,3.80
2023-02-25T21:46:39.544Z,3.70
2023-02-25T21:49:06.191Z,3.80
2023-02-25T21:51:32.846Z,3.70
2023-02-25T21:54:01.041Z,3.80
2023-02-25T21:56:29.124Z,3.80
2023-02-25T21:58:57.645Z,3.70
2023-02-25T22:01:29.778Z,3.70
2023-02-25T22:03:57.425Z,3.70
2023-02-25T22:06:25.280Z,3.70
2023-02-25T22:08:53.189Z,3.70
2023-02-25T22:11:31.706Z,3.80
2023-02-25T22:13:59.382Z,3.80
2023-02-25T22:16:27.077Z,3.80
2023-02-25T22:18:54.112Z,3.70
2023-02-25T22:21:24.029Z,3.70
2023-02-25T22:23:53.113Z,3.70
2023-02-25T22:26:22.576Z,3.70
2023-02-25T22:28:52.775Z,3.60
2023-02-25T22:31:19.425Z,3.60
2023-02-25T22:33:46.087Z,3.50
2023-02-25T22:36:13.954Z,3.50
2023-02-25T22:38:42.083Z,3.40
2023-02-25T22:41:20.599Z,3.30
2023-02-25T22:43:47.328Z,3.30
2023-02-25T22:46:19.563Z,3.20
2023-02-25T22:48:47.772Z,3.10
2023-02-25T22:51:26.548Z,3.10
2023-02-25T22:53:54.185Z,3.00
2023-02-25T22:56:21.353Z,3.00
2023-02-25T22:58:48.065Z,3.00
2023-02-25T23:01:16.415Z,2.90
2023-02-25T23:03:45.927Z,2.90
2023-02-25T23:06:15.200Z,2.80
2023-02-25T23:08:42.606Z,2.80
2023-02-25T23:11:12.276Z,2.80
2023-02-25T23:13:46.086Z,2.70
2023-02-25T23:16:18.285Z,2.70
2023-02-25T23:18:46.849Z,2.70
2023-02-25T23:21:18.902Z,2.60
2023-02-25T23:23:51.487Z,2.60
2023-02-25T23:26:21.291Z,2.50
2023-02-25T23:28:48.505Z,2.50
2023-02-25T23:31:19.696Z,2.50
2023-02-25T23:33:46.635Z,2.40
2023-02-25T23:36:13.607Z,2.40
2023-02-25T23:38:40.488Z,2.40
2023-02-25T23:41:07.347Z,2.30
2023-02-25T23:43:33.939Z,2.20
2023-02-25T23:46:06.062Z,2.10
2023-02-25T23:48:32.813Z,2.10
2023-02-25T23:51:06.917Z,2.00
2023-02-25T23:53:34.123Z,2.00
2023-02-25T23:56:08.839Z,2.00
2023-02-25T23:58:39.896Z,1.90
